Flight Track Log - Related Links

Times and Time Zones

All times are in EDT time to prevent confusion due to time zone crossing. See the DAL706 flight status page for this flight to view local times or setup timezone preferences in your user account.

Time Position Orientation Groundspeed Altitude Reporting Facility
EDT Latitude Longitude Course Direction KTS MPH feet Rate Location/Type
Thu 10:35:05 AM 41.9247 -72.7092 242° Southwest 170 196 1,200  Level Boston Center
Thu 10:35:48 AM 41.9208 -72.7600 264° West 214 246 2,400 2,031 Climbing Boston Center
Thu 10:36:10 AM 41.9197 -72.7931 267° West 220 253 3,400 2,361 Climbing Boston Center
Thu 10:36:49 AM 41.9203 -72.8492 271° West 255 293 4,800 2,459 Climbing Boston Center
Thu 10:37:11 AM 41.9206 -72.8858 271° West 247 284 5,900 3,036 Climbing Boston Center
Thu 10:38:00 AM 41.9026 -73.2099 262° West  Level FlightAware Approximate
Thu 10:38:12 AM 41.9186 -72.9817 268° West 255 293 9,000  Level Boston Center
Thu 10:39:00 AM 41.8826 -73.3349 236° Southwest  Level FlightAware Approximate
Thu 10:39:13 AM 41.9156 -73.0828 268° West 273 314 10,200  Level Boston Center
Thu 10:40:00 AM 41.8285 -73.4454 242° Southwest  Level FlightAware Approximate
Thu 10:40:15 AM 41.9133 -73.2161 269° West 331 381 12,300  Level Boston Center
Thu 10:41:16 AM 41.8900 -73.3361 255° West 328 377 15,300 2,557 Climbing Boston Center
Thu 10:42:17 AM 41.8400 -73.4467 239° Southwest 341 392 17,500 2,557 Climbing Boston Center
Thu 10:43:18 AM 41.7900 -73.5575 239° Southwest 337 388 20,500 2,410 Climbing Boston Center
Thu 10:44:19 AM 41.7258 -73.6453 226° Southwest 332 382 22,400 1,623 Climbing Boston Center
Thu 10:45:20 AM 41.6639 -73.7253 224° Southwest 336 387 23,800 1,525 Climbing Boston Center
Thu 10:46:21 AM 41.5953 -73.8156 225° Southwest 340 391 25,500 1,475 Climbing Boston Center
Thu 10:47:22 AM 41.5267 -73.9061 225° Southwest 345 397 26,800 1,230 Climbing Boston Center
Thu 10:48:23 AM 41.4553 -73.9986 224° Southwest 353 406 28,000 1,525 Climbing Boston Center
Thu 10:49:24 AM 41.3703 -74.1094 224° Southwest 357 411 29,900 1,554 Climbing Boston Center
Thu 10:50:15 AM 41.3122 -74.1878 225° Southwest 355 409 30,900 1,135 Climbing New York Center
Thu 10:51:15 AM 41.2408 -74.2753 223° Southwest 355 409 32,000 550 Climbing New York Center
Thu 10:52:15 AM 41.1694 -74.3653 224° Southwest 355 409 32,000  Level New York Center
Thu 10:53:15 AM 41.1000 -74.4550 224° Southwest 360 414 32,000  Level New York Center
Thu 10:54:15 AM 41.0264 -74.5447 223° Southwest 360 414 32,000  Level New York Center
Thu 10:55:15 AM 40.9586 -74.6397 227° Southwest 360 414 32,000  Level New York Center
Thu 10:56:15 AM 40.8869 -74.7289 223° Southwest 360 414 32,000  Level New York Center
Thu 10:57:15 AM 40.8153 -74.8181 223° Southwest 360 414 32,000  Level New York Center
Thu 10:58:15 AM 40.7453 -74.9097 225° Southwest 355 409 32,000  Level New York Center
Thu 10:59:15 AM 40.6733 -74.9986 223° Southwest 355 409 32,000 -50 Level New York Center
Thu 11:00:15 AM 40.6033 -75.0897 225° Southwest 355 409 31,900  Descending New York Center
Thu 11:01:15 AM 40.5314 -75.1781 223° Southwest 355 409 32,000 50 Climbing New York Center
Thu 11:02:15 AM 40.4592 -75.2689 224° Southwest 355 409 32,000  Level New York Center
Thu 11:03:15 AM 40.3869 -75.3569 223° Southwest 355 409 32,000  Level New York Center
Thu 11:04:15 AM 40.3147 -75.4500 225° Southwest 360 414 32,000  Level New York Center
Thu 11:05:15 AM 40.2444 -75.5378 224° Southwest 360 414 32,000  Level New York Center
Thu 11:06:15 AM 40.1861 -75.6397 233° Southwest 360 414 32,000  Level New York Center
Thu 11:07:15 AM 40.1314 -75.7472 236° Southwest 360 414 32,000  Level New York Center
Thu 11:08:15 AM 40.0814 -75.8469 237° Southwest 360 414 32,000  Level New York Center
Thu 11:09:15 AM 40.0308 -75.9544 238° Southwest 360 414 32,000  Level New York Center
Thu 11:10:15 AM 39.9719 -76.0611 234° Southwest 355 409 32,000  Level New York Center
Thu 11:11:15 AM 39.9211 -76.1683 238° Southwest 355 409 32,000  Level New York Center
Thu 11:12:15 AM 39.8622 -76.2744 234° Southwest 355 409 32,000  Level New York Center
Thu 11:14:01 AM 39.7647 -76.4661 237° Southwest 358 412 32,000  Level Washington Center
Thu 11:14:59 AM 39.7056 -76.5733 234° Southwest 358 412 32,000  Level Washington Center
Thu 11:15:59 AM 39.6506 -76.6775 236° Southwest 358 412 32,000  Level Washington Center
Thu 11:17:00 AM 39.5931 -76.7844 235° Southwest 353 406 32,000  Level Washington Center
Thu 11:18:01 AM 39.5400 -76.8886 237° Southwest 353 406 32,000  Level Washington Center
Thu 11:19:01 AM 39.4847 -76.9897 235° Southwest 353 406 32,000  Level Washington Center
Thu 11:20:00 AM 39.4067 -77.0742 220° Southwest 353 406 32,000  Level Washington Center
Thu 11:20:59 AM 39.3283 -77.1531 218° Southwest 353 406 32,000  Level Washington Center
Thu 11:22:00 AM 39.2503 -77.2319 218° Southwest 363 418 32,000  Level Washington Center
Thu 11:23:01 AM 39.1719 -77.3158 220° Southwest 363 418 32,000  Level Washington Center
Thu 11:24:01 AM 39.0958 -77.3942 219° Southwest 363 418 32,000  Level Washington Center
Thu 11:24:59 AM 39.0175 -77.4750 219° Southwest 363 418 32,000  Level Washington Center
Thu 11:26:00 AM 38.9392 -77.5531 218° Southwest 358 412 32,000  Level Washington Center
Thu 11:27:01 AM 38.8628 -77.6364 220° Southwest 358 412 32,000  Level Washington Center
Thu 11:27:59 AM 38.7906 -77.7117 219° Southwest 358 412 32,000  Level Washington Center
Thu 11:29:00 AM 38.7078 -77.7919 217° Southwest 364 419 32,000  Level Washington Center
Thu 11:30:01 AM 38.6333 -77.8747 221° Southwest 364 419 32,000  Level Washington Center
Thu 11:30:58 AM 38.5728 -77.9764 233° Southwest 359 413 32,000  Level Washington Center
Thu 11:31:59 AM 38.5144 -78.0806 234° Southwest 359 413 32,000  Level Washington Center
Thu 11:32:59 AM 38.4561 -78.1819 234° Southwest 364 419 32,000  Level Washington Center
Thu 11:34:00 AM 38.3956 -78.2833 233° Southwest 364 419 32,000  Level Washington Center
Thu 11:35:00 AM 38.3347 -78.3842 232° Southwest 364 419 32,000  Level Washington Center
Thu 11:36:01 AM 38.2761 -78.4853 234° Southwest 364 419 32,000  Level Washington Center
Thu 11:36:59 AM 38.2194 -78.5861 234° Southwest 359 413 32,000  Level Washington Center
Thu 11:37:59 AM 38.1583 -78.6842 232° Southwest 364 419 32,000  Level Washington Center
Thu 11:39:01 AM 38.0908 -78.7947 232° Southwest 364 419 32,000  Level Washington Center
Thu 11:40:01 AM 38.0300 -78.8922 232° Southwest 364 419 32,000  Level Washington Center
Thu 11:41:00 AM 37.9686 -78.9950 233° Southwest 364 419 32,000  Level Washington Center
Thu 11:42:00 AM 37.9139 -79.0847 232° Southwest 364 419 32,000  Level Washington Center
Thu 11:43:01 AM 37.8464 -79.1789 228° Southwest 364 419 32,000  Level Washington Center
Thu 11:43:59 AM 37.7789 -79.2728 228° Southwest 364 419 32,000  Level Washington Center
Thu 11:44:59 AM 37.7028 -79.3714 226° Southwest 364 419 32,000  Level Washington Center
Thu 11:46:01 AM 37.6458 -79.4578 230° Southwest 364 419 32,000  Level Washington Center
Thu 11:46:59 AM 37.5717 -79.5614 228° Southwest 364 419 32,000  Level Washington Center
Thu 11:47:59 AM 37.5103 -79.6447 227° Southwest 364 419 32,000  Level Washington Center
Thu 11:49:01 AM 37.4492 -79.7278 227° Southwest 364 419 32,000 590 Level Washington Center
Thu 11:50:01 AM 37.3658 -79.8436 228° Southwest 370 426 33,200 966 Climbing Washington Center
Thu 11:50:59 AM 37.2978 -79.9364 227° Southwest 370 426 33,900 261 Climbing Washington Center
Thu 11:53:05 AM 37.1614 -80.1194 227° Southwest 357 411 34,000 32 Climbing Atlanta Center
Thu 11:54:05 AM 37.0875 -80.2194 227° Southwest 357 411 34,000  Level Atlanta Center
Thu 11:55:05 AM 37.0194 -80.3136 228° Southwest 357 411 34,000  Level Atlanta Center
Thu 11:56:05 AM 36.9511 -80.4025 226° Southwest 357 411 34,000  Level Atlanta Center
Thu 11:57:05 AM 36.8831 -80.4939 227° Southwest 357 411 34,000  Level Atlanta Center
Thu 11:58:05 AM 36.8206 -80.5769 227° Southwest 357 411 34,000  Level Atlanta Center
Thu 11:59:05 AM 36.7544 -80.6653 227° Southwest 357 411 34,000  Level Atlanta Center
Thu 12:00:05 PM 36.6881 -80.7536 227° Southwest 351 404 34,000  Level Atlanta Center
Thu 12:01:05 PM 36.6214 -80.8444 228° Southwest 357 411 34,000  Level Atlanta Center
Thu 12:02:05 PM 36.5528 -80.9325 226° Southwest 357 411 34,000  Level Atlanta Center
Thu 12:03:05 PM 36.4864 -81.0228 228° Southwest 352 405 34,000  Level Atlanta Center
Thu 12:04:05 PM 36.4175 -81.1106 226° Southwest 352 405 34,000  Level Atlanta Center
Thu 12:05:05 PM 36.3508 -81.2006 227° Southwest 352 405 34,000  Level Atlanta Center
Thu 12:06:05 PM 36.2819 -81.2906 226° Southwest 357 411 34,000  Level Atlanta Center
Thu 12:07:05 PM 36.2131 -81.3803 226° Southwest 357 411 34,000  Level Atlanta Center
Thu 12:08:05 PM 36.1461 -81.4700 227° Southwest 358 412 34,000  Level Atlanta Center
Thu 12:09:05 PM 36.0792 -81.5594 227° Southwest 358 412 34,000  Level Atlanta Center
Thu 12:10:05 PM 36.0081 -81.6514 226° Southwest 358 412 34,000  Level Atlanta Center
Thu 12:11:05 PM 35.9408 -81.7381 226° Southwest 358 412 34,000  Level Atlanta Center
Thu 12:12:05 PM 35.8714 -81.8272 226° Southwest 353 406 34,000  Level Atlanta Center
Thu 12:13:05 PM 35.8042 -81.9136 226° Southwest 353 406 34,000  Level Atlanta Center
Thu 12:14:05 PM 35.7347 -82.0022 226° Southwest 353 406 34,000  Level Atlanta Center
Thu 12:15:05 PM 35.6672 -82.0883 226° Southwest 353 406 34,000  Level Atlanta Center
Thu 12:16:05 PM 35.5956 -82.1769 225° Southwest 358 412 34,000  Level Atlanta Center
Thu 12:17:05 PM 35.5239 -82.2578 223° Southwest 358 412 34,000 -600 Level Atlanta Center
Thu 12:18:05 PM 35.4519 -82.3383 222° Southwest 358 412 32,800 -1,300 Descending Atlanta Center
Thu 12:19:05 PM 35.3758 -82.4214 222° Southwest 363 418 31,400 -1,350 Descending Atlanta Center
Thu 12:20:05 PM 35.3017 -82.5017 221° Southwest 363 418 30,100 -1,300 Descending Atlanta Center
Thu 12:21:05 PM 35.2256 -82.5869 222° Southwest 363 418 28,800 -1,200 Descending Atlanta Center
Thu 12:22:05 PM 35.1578 -82.6644 223° Southwest 352 405 27,700 -1,100 Descending Atlanta Center
Thu 12:23:05 PM 35.0897 -82.7392 222° Southwest 347 399 26,600 -1,050 Descending Atlanta Center
Thu 12:24:05 PM 35.0236 -82.8136 223° Southwest 332 382 25,600 -1,100 Descending Atlanta Center
Thu 12:25:05 PM 34.9556 -82.8883 222° Southwest 332 382 24,400 -800 Descending Atlanta Center
Thu 12:26:05 PM 34.8894 -82.9650 224° Southwest 332 382 24,000 -200 Descending Atlanta Center
Thu 12:27:05 PM 34.8233 -83.0367 222° Southwest 326 375 24,000  Level Atlanta Center
Thu 12:28:05 PM 34.7569 -83.1083 222° Southwest 326 375 24,000  Level Atlanta Center
Thu 12:29:05 PM 34.6825 -83.1950 224° Southwest 339 390 24,000 -350 Level Atlanta Center
Thu 12:30:05 PM 34.6183 -83.2664 222° Southwest 353 406 23,300 -500 Descending Atlanta Center
Thu 12:31:05 PM 34.5436 -83.3478 222° Southwest 358 412 23,000 -150 Descending Atlanta Center
Thu 12:32:05 PM 34.4731 -83.4239 222° Southwest 358 412 23,000 -450 Level Atlanta Center
Thu 12:33:05 PM 34.4006 -83.5050 223° Southwest 358 412 22,100 -1,650 Descending Atlanta Center
Thu 12:34:05 PM 34.3297 -83.5811 222° Southwest 358 412 19,700 -2,350 Descending Atlanta Center
Thu 12:35:05 PM 34.2611 -83.6567 222° Southwest 353 406 17,400 -2,250 Descending Atlanta Center
Thu 12:36:05 PM 34.1967 -83.7247 221° Southwest 341 392 15,200 -2,200 Descending Atlanta Center
Thu 12:37:05 PM 34.1322 -83.7928 221° Southwest 324 373 13,000 -1,600 Descending Atlanta Center
Thu 12:38:05 PM 34.0739 -83.8608 224° Southwest 305 351 12,000 -1,188 Descending Atlanta Center
Thu 12:38:41 PM 34.0333 -83.9000 219° Southwest 275 316 11,100 -1,250 Descending Atlanta TRACON
Thu 12:39:41 PM 33.9833 -83.9500 220° Southwest 246 283 10,000 -1,050 Descending Atlanta TRACON
Thu 12:40:41 PM 33.9167 -83.9667 192° South 259 298 9,000 -650 Descending Atlanta TRACON
Thu 12:41:41 PM 33.8333 -83.9667 180° South 253 291 8,700 -526 Descending Atlanta TRACON
Thu 12:42:35 PM 33.7833 -83.9667 180° South 249 287 8,000 -500 Descending Atlanta TRACON
Thu 12:43:05 PM 33.7503 -83.9614 172° South 252 290 8,000 -581 Level Atlanta Center
Thu 12:45:41 PM 33.6333 -84.0500 212° Southwest 184 212 6,200 -743 Descending Atlanta TRACON
Thu 12:46:35 PM 33.6333 -84.1167 270° West 196 226 5,400 -900 Descending Atlanta TRACON
Thu 12:47:41 PM 33.6333 -84.1833 270° West 192 221 4,400 -750 Descending Atlanta TRACON
Thu 12:48:35 PM 33.6333 -84.2333 270° West 205 236 3,900 -789 Descending Atlanta TRACON
Thu 12:49:35 PM 33.6333 -84.3000 270° West 177 204 2,900 -900 Descending Atlanta TRACON
Thu 12:50:35 PM 33.6333 -84.3500 270° West 140 161 2,100 -750 Descending Atlanta TRACON
Thu 12:51:35 PM 33.6333 -84.4000 270° West 142 163 1,400 -700 Descending Atlanta TRACON

Login

Don't have an account? Register now (free) for customized features, flight alerts, and more!